KMMI/MMI METAR and TAF weather

Enter ICAO airport designator
Station Type Date Time Source
KMMI METAR 2019/02/22 22:15 UTC NOAA

KMMI 222215Z AUTO 05006KT 1 1/4SM BR SCT005 BKN016 BKN027 11/10 A3022 RMK A01


Station Type Date Time Source
KMMI Decoded METAR 2019/02/22 22:15 UTC NOAA

Station name not available
Feb 22, 2019 - 05:15 PM EST / 2019.02.22 2215 UTC
Wind: from the NE (050 degrees) at 7 MPH (6 KT):0
Visibility: 1 1/4 mile(s):0
Sky conditions: mostly cloudy
Weather: mist
Temperature: 51 F (11 C)
Dew Point: 50 F (10 C)
Relative Humidity: 93%
Pressure (altimeter): 30.22 in. Hg (1023 hPa)
ob: KMMI 222215Z AUTO 05006KT 1 1/4SM BR SCT005 BKN016 BKN027 11/10 A3022 RMK A01
cycle: 22

Station Type Date Time Source
KMMI TAF UTC NOAA

Error!


Example: see airport list